createdAt,value
2018-08-30T00:00:37.744Z,0
2018-08-30T00:01:47.703Z,0
2018-08-30T00:02:57.664Z,0
2018-08-30T00:04:07.617Z,0
2018-08-30T00:05:17.320Z,0
2018-08-30T00:06:27.279Z,0
2018-08-30T00:07:37.242Z,0
2018-08-30T00:08:47.202Z,0
2018-08-30T00:09:57.146Z,0
2018-08-30T00:11:06.847Z,0
2018-08-30T00:12:16.541Z,0
2018-08-30T00:13:26.494Z,0
2018-08-30T00:14:36.444Z,0
2018-08-30T00:15:46.422Z,0
2018-08-30T00:16:56.125Z,0
2018-08-30T00:18:06.082Z,0
2018-08-30T00:19:16.058Z,0
2018-08-30T00:20:26.012Z,0
2018-08-30T00:21:35.966Z,0
2018-08-30T00:22:45.661Z,0
2018-08-30T00:23:55.103Z,0
2018-08-30T00:25:05.078Z,0
2018-08-30T00:26:15.056Z,0
2018-08-30T00:27:25.025Z,0
2018-08-30T00:28:34.997Z,0
2018-08-30T00:29:44.980Z,0
2018-08-30T00:30:54.676Z,0
2018-08-30T00:32:04.635Z,0
2018-08-30T00:33:14.340Z,0
2018-08-30T00:34:24.326Z,0
2018-08-30T00:35:34.278Z,0
2018-08-30T00:36:44.248Z,0
2018-08-30T00:37:54.217Z,0
2018-08-30T00:39:04.192Z,0
2018-08-30T00:40:14.152Z,0
2018-08-30T00:41:24.376Z,0
2018-08-30T00:42:34.543Z,0
2018-08-30T00:43:44.248Z,0
2018-08-30T00:44:53.695Z,0
2018-08-30T00:46:03.655Z,0
2018-08-30T00:47:13.634Z,0
2018-08-30T00:48:23.602Z,0
2018-08-30T00:49:33.558Z,0
2018-08-30T00:50:43.519Z,0
2018-08-30T00:51:53.483Z,0
2018-08-30T00:53:03.468Z,0
2018-08-30T00:54:13.422Z,0
2018-08-30T00:55:23.140Z,0
2018-08-30T00:56:33.106Z,0
2018-08-30T00:57:42.805Z,0
2018-08-30T00:58:52.771Z,0
2018-08-30T01:00:02.724Z,0
2018-08-30T01:01:12.682Z,0
2018-08-30T01:02:22.660Z,0
2018-08-30T01:03:32.112Z,0
2018-08-30T01:04:41.833Z,0
2018-08-30T01:05:51.533Z,0
2018-08-30T01:07:00.975Z,0
2018-08-30T01:08:10.936Z,0
2018-08-30T01:09:20.894Z,0
2018-08-30T01:10:30.845Z,0
2018-08-30T01:11:40.297Z,0
2018-08-30T01:12:50.272Z,0
2018-08-30T01:13:59.981Z,0
2018-08-30T01:15:09.936Z,0
2018-08-30T01:16:19.894Z,0
2018-08-30T01:17:29.610Z,0
2018-08-30T01:18:39.569Z,0
2018-08-30T01:19:49.534Z,0
2018-08-30T01:20:58.987Z,0
2018-08-30T01:22:08.944Z,0
2018-08-30T01:23:18.643Z,0
2018-08-30T01:24:28.614Z,0
2018-08-30T01:25:38.319Z,0
2018-08-30T01:26:48.280Z,0
2018-08-30T01:27:58.036Z,0
2018-08-30T01:29:07.223Z,0
2018-08-30T01:30:17.179Z,0
2018-08-30T01:31:26.881Z,0
2018-08-30T01:32:36.838Z,0
2018-08-30T01:33:46.542Z,0
2018-08-30T01:34:56.505Z,0
2018-08-30T01:36:06.211Z,0
2018-08-30T01:37:15.908Z,0
2018-08-30T01:38:25.609Z,0
2018-08-30T01:39:35.570Z,0
2018-08-30T01:40:45.528Z,0
2018-08-30T01:41:55.230Z,0
2018-08-30T01:43:05.194Z,0
2018-08-30T01:44:15.165Z,0
2018-08-30T01:45:24.857Z,0
2018-08-30T01:46:34.302Z,0
2018-08-30T01:47:44.002Z,0
2018-08-30T01:48:53.702Z,0
2018-08-30T01:50:03.674Z,0
2018-08-30T01:51:13.640Z,0
2018-08-30T01:52:23.588Z,0
2018-08-30T01:53:33.555Z,0
2018-08-30T01:54:43.508Z,0
2018-08-30T01:55:53.508Z,0
2018-08-30T01:57:03.467Z,0
2018-08-30T01:58:13.157Z,0
2018-08-30T01:59:23.117Z,0
2018-08-30T02:00:33.075Z,0
2018-08-30T02:01:43.050Z,0
2018-08-30T02:02:52.751Z,0
2018-08-30T02:04:02.725Z,0
2018-08-30T02:05:12.684Z,0
2018-08-30T02:06:22.638Z,0
2018-08-30T02:07:32.594Z,0
2018-08-30T02:08:42.293Z,0
2018-08-30T02:09:52.008Z,0
2018-08-30T02:11:01.446Z,0
2018-08-30T02:12:11.147Z,0
2018-08-30T02:13:20.837Z,0
2018-08-30T02:14:30.288Z,0
2018-08-30T02:15:40.255Z,0
2018-08-30T02:16:50.232Z,0
2018-08-30T02:18:00.180Z,0
2018-08-30T02:19:10.127Z,0
2018-08-30T02:20:20.082Z,0
2018-08-30T02:21:29.525Z,0
2018-08-30T02:22:39.488Z,0
2018-08-30T02:23:49.441Z,0
2018-08-30T02:24:59.397Z,0
2018-08-30T02:26:09.357Z,0
2018-08-30T02:27:19.066Z,0
2018-08-30T02:28:29.036Z,0
2018-08-30T02:29:38.999Z,0
2018-08-30T02:30:48.979Z,0
2018-08-30T02:31:58.956Z,0
2018-08-30T02:33:08.912Z,0
2018-08-30T02:34:18.858Z,0
2018-08-30T02:35:28.824Z,0
2018-08-30T02:36:38.786Z,0
2018-08-30T02:37:48.748Z,0
2018-08-30T02:38:58.708Z,0
2018-08-30T02:40:08.427Z,0
2018-08-30T02:41:17.875Z,0
2018-08-30T02:42:27.846Z,0
2018-08-30T02:43:37.799Z,0
2018-08-30T02:44:47.824Z,0
2018-08-30T02:45:57.821Z,0
2018-08-30T02:47:07.520Z,0
2018-08-30T02:48:17.545Z,0
2018-08-30T02:49:27.524Z,0
2018-08-30T02:50:36.961Z,0
2018-08-30T02:51:46.418Z,0
2018-08-30T02:52:55.596Z,0
2018-08-30T02:54:05.292Z,0
2018-08-30T02:55:15.267Z,0
2018-08-30T02:56:24.967Z,0
2018-08-30T02:57:34.682Z,0
2018-08-30T02:58:44.639Z,0
2018-08-30T02:59:54.594Z,0
2018-08-30T03:01:04.549Z,0
2018-08-30T03:02:14.607Z,0
2018-08-30T03:03:24.569Z,0
2018-08-30T03:04:34.525Z,0
2018-08-30T03:05:44.490Z,0
2018-08-30T03:06:54.205Z,0
2018-08-30T03:08:03.906Z,0
2018-08-30T03:09:13.874Z,0
2018-08-30T03:10:23.317Z,0
2018-08-30T03:11:33.263Z,0
2018-08-30T03:12:43.211Z,0
2018-08-30T03:13:53.167Z,0
2018-08-30T03:15:02.874Z,0
2018-08-30T03:16:12.848Z,0
2018-08-30T03:17:22.547Z,0
2018-08-30T03:18:32.502Z,0
2018-08-30T03:19:42.219Z,0
2018-08-30T03:20:52.197Z,0
2018-08-30T03:22:02.151Z,0
2018-08-30T03:23:12.115Z,0
2018-08-30T03:24:22.086Z,0
2018-08-30T03:25:32.051Z,0
2018-08-30T03:26:42.169Z,0
2018-08-30T03:27:52.131Z,0
2018-08-30T03:29:01.570Z,0
2018-08-30T03:30:11.890Z,0
2018-08-30T03:31:21.911Z,0
2018-08-30T03:32:31.619Z,0
2018-08-30T03:33:41.594Z,0
2018-08-30T03:34:51.300Z,0
2018-08-30T03:36:01.261Z,0
2018-08-30T03:37:10.705Z,0
2018-08-30T03:38:20.402Z,4
2018-08-30T03:39:29.862Z,4
2018-08-30T03:40:39.578Z,0
2018-08-30T03:41:49.529Z,4
2018-08-30T03:42:59.225Z,4
2018-08-30T03:44:08.665Z,8
2018-08-30T03:45:18.644Z,8
2018-08-30T03:46:28.357Z,8
2018-08-30T03:47:38.320Z,12
2018-08-30T03:48:48.272Z,12
2018-08-30T03:49:57.975Z,12
2018-08-30T03:51:07.932Z,16
2018-08-30T03:52:17.888Z,20
2018-08-30T03:53:27.603Z,24
2018-08-30T03:54:37.562Z,28
2018-08-30T03:55:47.265Z,32
2018-08-30T03:56:57.231Z,40
2018-08-30T03:58:07.196Z,48
2018-08-30T03:59:17.160Z,56
2018-08-30T04:00:26.863Z,64
2018-08-30T04:01:36.835Z,80
2018-08-30T04:02:46.799Z,92
2018-08-30T04:03:56.273Z,108
2018-08-30T04:05:05.987Z,120
2018-08-30T04:06:15.952Z,132
2018-08-30T04:07:25.918Z,152
2018-08-30T04:08:35.886Z,168
2018-08-30T04:09:45.614Z,184
2018-08-30T04:10:55.632Z,204
2018-08-30T04:12:05.589Z,224
2018-08-30T04:13:15.296Z,248
2018-08-30T04:14:24.994Z,276
2018-08-30T04:15:34.974Z,308
2018-08-30T04:16:44.688Z,344
2018-08-30T04:17:54.641Z,388
2018-08-30T04:19:04.584Z,436
2018-08-30T04:20:14.291Z,492
2018-08-30T04:21:24.254Z,560
2018-08-30T04:22:34.220Z,624
2018-08-30T04:23:43.919Z,696
2018-08-30T04:24:53.622Z,756
2018-08-30T04:26:03.584Z,800
2018-08-30T04:27:13.507Z,860
2018-08-30T04:28:23.467Z,924
2018-08-30T04:29:33.431Z,972
2018-08-30T04:30:43.164Z,1028
2018-08-30T04:31:52.869Z,1100
2018-08-30T04:33:02.567Z,1192
2018-08-30T04:34:12.516Z,1296
2018-08-30T04:35:22.214Z,1416
2018-08-30T04:36:32.213Z,1536
2018-08-30T04:37:42.181Z,1644
2018-08-30T04:38:52.142Z,1768
2018-08-30T04:40:02.124Z,1900
2018-08-30T04:41:11.825Z,2004
2018-08-30T04:42:22.126Z,2076
2018-08-30T04:43:32.278Z,2128
2018-08-30T04:44:41.723Z,2164
2018-08-30T04:45:51.696Z,2204
2018-08-30T04:47:01.660Z,2272
2018-08-30T04:48:11.359Z,2372
2018-08-30T04:49:21.318Z,2460
2018-08-30T04:50:31.600Z,2556
2018-08-30T04:51:41.638Z,2660
2018-08-30T04:52:51.367Z,2744
2018-08-30T04:54:01.317Z,2832
2018-08-30T04:55:11.276Z,2904
2018-08-30T04:56:21.191Z,2920
2018-08-30T04:57:31.164Z,2900
2018-08-30T04:58:40.903Z,2880
2018-08-30T04:59:50.870Z,2860
2018-08-30T05:01:00.851Z,2836
2018-08-30T05:02:10.563Z,2808
2018-08-30T05:03:20.531Z,2772
2018-08-30T05:04:30.306Z,2744
2018-08-30T05:05:39.762Z,2688
2018-08-30T05:06:49.473Z,2616
2018-08-30T05:07:59.439Z,2524
2018-08-30T05:09:09.137Z,2428
2018-08-30T05:10:19.214Z,2344
2018-08-30T05:11:29.164Z,2276
2018-08-30T05:12:38.865Z,2216
2018-08-30T05:13:48.314Z,2216
2018-08-30T05:14:58.284Z,2228
2018-08-30T05:16:08.243Z,2272
2018-08-30T05:17:17.958Z,2328
2018-08-30T05:18:27.948Z,2404
2018-08-30T05:19:37.912Z,2476
2018-08-30T05:20:47.871Z,2580
2018-08-30T05:21:57.832Z,2696
2018-08-30T05:23:07.653Z,2804
2018-08-30T05:24:17.445Z,2912
2018-08-30T05:25:27.137Z,2972
2018-08-30T05:26:37.102Z,3072
2018-08-30T05:27:46.545Z,3176
2018-08-30T05:28:56.269Z,3252
2018-08-30T05:30:06.256Z,3320
2018-08-30T05:31:15.962Z,3360
2018-08-30T05:32:25.933Z,3444
2018-08-30T05:33:35.918Z,3584
2018-08-30T05:34:45.661Z,3728
2018-08-30T05:35:56.068Z,3856
2018-08-30T05:37:06.040Z,3980
2018-08-30T05:38:15.501Z,4092
2018-08-30T05:39:25.225Z,4200
2018-08-30T05:40:35.191Z,4332
2018-08-30T05:41:44.891Z,4568
2018-08-30T05:42:54.592Z,4904
2018-08-30T05:44:04.288Z,5260
2018-08-30T05:45:13.747Z,5592
2018-08-30T05:46:23.454Z,5796
2018-08-30T05:47:33.415Z,5820
2018-08-30T05:48:43.401Z,5724
2018-08-30T05:49:53.373Z,5640
2018-08-30T05:51:03.202Z,5528
2018-08-30T05:52:13.189Z,5360
2018-08-30T05:53:23.154Z,5164
2018-08-30T05:54:33.103Z,5036
2018-08-30T05:55:43.076Z,5016
2018-08-30T05:56:53.297Z,5192
2018-08-30T05:58:03.167Z,5508
2018-08-30T05:59:13.132Z,5892
2018-08-30T06:00:22.326Z,6284
2018-08-30T06:01:32.471Z,6704
2018-08-30T06:02:42.183Z,7072
2018-08-30T06:03:52.151Z,7324
2018-08-30T06:05:01.850Z,7440
2018-08-30T06:06:11.552Z,7576
2018-08-30T06:07:21.453Z,7804
2018-08-30T06:08:32.085Z,8152
2018-08-30T06:09:41.280Z,8612
2018-08-30T06:10:51.230Z,9208
2018-08-30T06:12:00.959Z,9896
2018-08-30T06:13:11.222Z,10440
2018-08-30T06:14:21.214Z,10840
2018-08-30T06:15:30.911Z,11260
2018-08-30T06:16:40.624Z,11512
2018-08-30T06:17:50.327Z,11600
2018-08-30T06:19:00.292Z,11656
2018-08-30T06:20:09.998Z,11652
2018-08-30T06:21:19.967Z,11612
2018-08-30T06:22:29.936Z,11320
2018-08-30T06:23:39.905Z,10800
2018-08-30T06:24:49.638Z,10244
2018-08-30T06:25:59.612Z,9748
2018-08-30T06:27:09.585Z,9380
2018-08-30T06:28:19.590Z,9232
2018-08-30T06:29:29.675Z,9176
2018-08-30T06:30:39.378Z,9104
2018-08-30T06:31:49.381Z,9084
2018-08-30T06:32:59.649Z,9204
2018-08-30T06:34:09.762Z,9560
2018-08-30T06:35:19.728Z,9972
2018-08-30T06:36:29.687Z,10232
2018-08-30T06:37:39.408Z,10320
2018-08-30T06:38:49.594Z,10384
2018-08-30T06:39:59.810Z,10376
2018-08-30T06:41:09.775Z,10424
2018-08-30T06:42:19.739Z,10460
2018-08-30T06:43:29.730Z,10380
2018-08-30T06:44:39.756Z,10192
2018-08-30T06:45:49.731Z,10264
2018-08-30T06:46:59.704Z,10452
2018-08-30T06:48:09.165Z,10540
2018-08-30T06:49:19.181Z,10608
2018-08-30T06:50:29.180Z,10632
2018-08-30T06:51:38.901Z,10644
2018-08-30T06:52:48.887Z,10672
2018-08-30T06:53:58.874Z,10684
2018-08-30T06:55:08.586Z,10640
2018-08-30T06:56:18.452Z,10500
2018-08-30T06:57:28.572Z,10324
2018-08-30T06:58:38.672Z,10144
2018-08-30T06:59:48.641Z,9944
2018-08-30T07:00:58.346Z,9728
2018-08-30T07:02:08.333Z,9532
2018-08-30T07:03:18.112Z,9392
2018-08-30T07:04:28.253Z,9328
2018-08-30T07:05:37.956Z,9348
2018-08-30T07:06:47.675Z,9432
2018-08-30T07:07:57.659Z,9516
2018-08-30T07:09:07.478Z,9500
2018-08-30T07:10:16.955Z,9400
2018-08-30T07:11:26.668Z,9356
2018-08-30T07:12:36.636Z,9488
2018-08-30T07:13:46.361Z,9820
2018-08-30T07:14:56.536Z,10272
2018-08-30T07:16:06.763Z,10788
2018-08-30T07:17:16.738Z,11400
2018-08-30T07:18:26.709Z,12144
2018-08-30T07:19:36.447Z,12928
2018-08-30T07:20:46.377Z,13772
2018-08-30T07:21:56.095Z,14636
2018-08-30T07:23:06.082Z,15376
2018-08-30T07:24:16.256Z,16020
2018-08-30T07:25:26.385Z,16576
2018-08-30T07:26:36.353Z,17000
2018-08-30T07:27:46.323Z,17632
2018-08-30T07:28:56.340Z,18176
2018-08-30T07:30:06.313Z,18496
2018-08-30T07:31:16.053Z,18496
2018-08-30T07:32:25.765Z,18368
2018-08-30T07:33:35.753Z,18560
2018-08-30T07:34:46.303Z,18592
2018-08-30T07:35:56.724Z,18336
2018-08-30T07:37:06.689Z,17952
2018-08-30T07:38:16.665Z,17356
2018-08-30T07:39:26.632Z,16916
2018-08-30T07:40:36.361Z,16736
2018-08-30T07:41:46.067Z,16460
2018-08-30T07:42:56.095Z,16312
2018-08-30T07:44:06.528Z,16368
2018-08-30T07:45:16.731Z,16580
2018-08-30T07:46:26.703Z,16896
2018-08-30T07:47:36.410Z,17260
2018-08-30T07:48:46.220Z,17600
2018-08-30T07:49:55.943Z,17472
2018-08-30T07:51:06.517Z,16944
2018-08-30T07:52:16.067Z,16412
2018-08-30T07:53:25.774Z,15556
2018-08-30T07:54:35.717Z,14588
2018-08-30T07:55:45.876Z,13820
2018-08-30T07:56:55.922Z,13496
2018-08-30T07:58:05.897Z,13592
2018-08-30T07:59:15.863Z,13808
2018-08-30T08:00:25.586Z,14180
2018-08-30T08:01:35.564Z,14736
2018-08-30T08:02:45.523Z,15312
2018-08-30T08:03:55.236Z,15884
2018-08-30T08:05:04.689Z,16372
2018-08-30T08:06:14.942Z,16284
2018-08-30T08:07:25.267Z,16116
2018-08-30T08:08:34.986Z,16448
2018-08-30T08:09:44.446Z,16468
2018-08-30T08:10:54.170Z,16172
2018-08-30T08:12:04.661Z,15956
2018-08-30T08:13:14.697Z,15444
2018-08-30T08:14:24.410Z,14796
2018-08-30T08:15:34.390Z,14160
2018-08-30T08:16:44.392Z,13364
2018-08-30T08:17:54.121Z,12480
2018-08-30T08:19:04.497Z,12116
2018-08-30T08:20:14.305Z,12268
2018-08-30T08:21:24.262Z,12800
2018-08-30T08:22:34.230Z,13320
2018-08-30T08:23:44.193Z,13660
2018-08-30T08:24:54.284Z,13792
2018-08-30T08:26:04.257Z,13648
2018-08-30T08:27:14.005Z,13008
2018-08-30T08:28:24.234Z,12536
2018-08-30T08:29:34.505Z,12512
2018-08-30T08:30:44.217Z,12832
2018-08-30T08:31:53.695Z,13684
2018-08-30T08:33:03.656Z,14544
2018-08-30T08:34:13.447Z,15480
2018-08-30T08:35:23.411Z,16292
2018-08-30T08:36:33.146Z,16248
2018-08-30T08:37:43.113Z,15924
2018-08-30T08:38:53.158Z,15568
2018-08-30T08:40:02.469Z,14188
2018-08-30T08:41:12.205Z,12088
2018-08-30T08:42:22.183Z,12088
2018-08-30T08:43:32.158Z,11664
2018-08-30T08:44:42.179Z,11500
2018-08-30T08:45:52.155Z,10048
2018-08-30T08:47:02.186Z,8620
2018-08-30T08:48:11.934Z,9704
2018-08-30T08:49:21.672Z,10944
2018-08-30T08:50:31.379Z,13144
2018-08-30T08:51:41.352Z,14460
2018-08-30T08:52:51.410Z,15312
2018-08-30T08:54:01.351Z,16416
2018-08-30T08:55:11.065Z,17504
2018-08-30T08:56:21.073Z,18016
2018-08-30T08:57:31.037Z,19936
2018-08-30T08:58:41.089Z,20416
2018-08-30T08:59:51.081Z,19904
2018-08-30T09:01:01.074Z,18944
2018-08-30T09:02:11.052Z,17332
2018-08-30T09:03:21.027Z,17376
2018-08-30T09:04:30.764Z,18208
2018-08-30T09:05:40.753Z,18144
2018-08-30T09:06:50.804Z,17056
2018-08-30T09:08:01.155Z,17984
2018-08-30T09:09:10.883Z,18016
2018-08-30T09:10:20.608Z,18176
2018-08-30T09:11:30.818Z,18752
2018-08-30T09:12:40.854Z,18912
2018-08-30T09:13:50.302Z,18976
2018-08-30T09:14:59.765Z,20416
2018-08-30T09:16:09.781Z,19552
2018-08-30T09:17:19.755Z,20544
2018-08-30T09:18:30.136Z,21568
2018-08-30T09:19:39.816Z,21504
2018-08-30T09:20:49.571Z,20864
2018-08-30T09:21:59.281Z,21120
2018-08-30T09:23:09.560Z,20736
2018-08-30T09:24:19.729Z,20096
2018-08-30T09:25:29.482Z,19776
2018-08-30T09:26:39.501Z,19744
2018-08-30T09:27:49.587Z,19264
2018-08-30T09:28:59.566Z,18464
2018-08-30T09:30:09.552Z,16356
2018-08-30T09:31:19.292Z,13740
2018-08-30T09:32:29.264Z,13040
2018-08-30T09:33:38.982Z,10452
2018-08-30T09:34:48.972Z,8984
2018-08-30T09:35:58.688Z,9204
2018-08-30T09:37:08.680Z,8828
2018-08-30T09:38:18.664Z,8940
2018-08-30T09:39:28.642Z,9976
2018-08-30T09:40:38.361Z,8872
2018-08-30T09:41:48.327Z,8036
2018-08-30T09:42:58.294Z,7908
2018-08-30T09:44:08.273Z,7408
2018-08-30T09:45:18.273Z,7144
2018-08-30T09:46:27.996Z,7452
2018-08-30T09:47:37.981Z,7104
2018-08-30T09:48:48.000Z,7464
2018-08-30T09:49:58.285Z,7300
2018-08-30T09:51:08.003Z,7328
2018-08-30T09:52:17.755Z,7388
2018-08-30T09:53:27.780Z,6912
2018-08-30T09:54:37.771Z,6192
2018-08-30T09:55:47.869Z,5840
2018-08-30T09:56:58.614Z,6048
2018-08-30T09:58:08.838Z,6040
2018-08-30T09:59:18.780Z,5988
2018-08-30T10:00:28.764Z,6068
2018-08-30T10:01:38.761Z,6328
2018-08-30T10:02:48.747Z,6692
2018-08-30T10:03:59.084Z,5992
2018-08-30T10:05:09.131Z,6164
2018-08-30T10:06:18.872Z,6324
2018-08-30T10:07:28.847Z,7384
2018-08-30T10:08:38.855Z,9036
2018-08-30T10:09:48.833Z,7940
2018-08-30T10:10:58.830Z,9836
2018-08-30T10:12:08.866Z,10520
2018-08-30T10:13:18.849Z,8908
2018-08-30T10:14:28.801Z,9268
2018-08-30T10:15:38.794Z,9200
2018-08-30T10:16:48.789Z,9016
2018-08-30T10:17:58.503Z,8236
2018-08-30T10:19:08.242Z,7440
2018-08-30T10:20:17.965Z,6864
2018-08-30T10:21:28.156Z,9244
2018-08-30T10:22:38.259Z,11156
2018-08-30T10:23:48.229Z,11440
2018-08-30T10:24:57.969Z,9464
2018-08-30T10:26:08.006Z,7384
2018-08-30T10:27:18.026Z,6424
2018-08-30T10:28:28.011Z,5680
2018-08-30T10:29:37.990Z,4948
2018-08-30T10:30:47.735Z,4280
2018-08-30T10:31:57.482Z,3644
2018-08-30T10:33:07.455Z,4532
2018-08-30T10:34:17.442Z,7128
2018-08-30T10:35:27.471Z,8204
2018-08-30T10:36:37.458Z,10348
2018-08-30T10:37:47.204Z,13992
2018-08-30T10:38:57.470Z,16144
2018-08-30T10:40:07.205Z,14732
2018-08-30T10:41:16.936Z,14112
2018-08-30T10:42:26.686Z,9996
2018-08-30T10:43:36.477Z,6568
2018-08-30T10:44:46.453Z,5908
2018-08-30T10:45:56.230Z,5172
2018-08-30T10:47:05.963Z,5372
2018-08-30T10:48:15.749Z,6212
2018-08-30T10:49:25.955Z,5984
2018-08-30T10:50:35.494Z,6576
2018-08-30T10:51:45.239Z,6652
2018-08-30T10:52:54.956Z,6216
2018-08-30T10:54:04.938Z,7172
2018-08-30T10:55:14.670Z,7216
2018-08-30T10:56:25.060Z,6588
2018-08-30T10:57:34.903Z,5728
2018-08-30T10:58:44.884Z,5576
2018-08-30T10:59:54.888Z,7020
2018-08-30T11:01:04.883Z,8168
2018-08-30T11:02:14.884Z,8640
2018-08-30T11:03:24.876Z,9976
2018-08-30T11:04:34.732Z,10532
2018-08-30T11:05:44.762Z,10468
2018-08-30T11:06:54.929Z,7416
2018-08-30T11:08:05.072Z,5372
2018-08-30T11:09:15.273Z,7164
2018-08-30T11:10:24.816Z,10136
2018-08-30T11:11:34.540Z,12984
2018-08-30T11:12:44.620Z,14008
2018-08-30T11:13:54.190Z,12556
2018-08-30T11:15:04.159Z,11136
2018-08-30T11:16:13.870Z,12108
2018-08-30T11:17:23.592Z,13448
2018-08-30T11:18:33.330Z,10660
2018-08-30T11:19:43.322Z,7312
2018-08-30T11:20:52.775Z,5704
2018-08-30T11:22:02.487Z,4840
2018-08-30T11:23:12.457Z,5220
2018-08-30T11:24:22.472Z,5280
2018-08-30T11:25:32.328Z,5108
2018-08-30T11:26:42.381Z,6064
2018-08-30T11:27:51.839Z,7284
2018-08-30T11:29:01.803Z,6384
2018-08-30T11:30:11.537Z,6720
2018-08-30T11:31:21.239Z,8624
2018-08-30T11:32:31.269Z,9808
2018-08-30T11:33:41.261Z,11624
2018-08-30T11:34:50.996Z,12260
2018-08-30T11:36:00.974Z,13228
2018-08-30T11:37:10.967Z,13084
2018-08-30T11:38:20.945Z,15464
2018-08-30T11:39:30.931Z,15112
2018-08-30T11:40:40.923Z,14016
2018-08-30T11:41:51.034Z,13280
2018-08-30T11:43:01.095Z,12392
2018-08-30T11:44:11.137Z,13896
2018-08-30T11:45:21.117Z,13712
2018-08-30T11:46:31.120Z,15828
2018-08-30T11:47:41.097Z,18720
2018-08-30T11:48:51.069Z,17184
2018-08-30T11:50:00.776Z,17428
2018-08-30T11:51:10.894Z,24320
2018-08-30T11:52:21.470Z,20736
2018-08-30T11:53:31.256Z,20352
2018-08-30T11:54:41.221Z,20192
2018-08-30T11:55:51.219Z,19168
2018-08-30T11:57:00.947Z,23232
2018-08-30T11:58:10.412Z,24864
2018-08-30T11:59:20.398Z,20064
2018-08-30T12:00:30.125Z,22496
2018-08-30T12:01:40.091Z,21088
2018-08-30T12:02:50.074Z,22368
2018-08-30T12:04:00.053Z,21440
2018-08-30T12:05:10.011Z,21536
2018-08-30T12:06:19.734Z,22240
2018-08-30T12:07:29.451Z,21280
2018-08-30T12:08:39.599Z,22496
2018-08-30T12:09:49.558Z,22976
2018-08-30T12:10:59.862Z,23968
2018-08-30T12:12:09.815Z,25280
2018-08-30T12:13:19.532Z,25920
2018-08-30T12:14:29.532Z,26432
2018-08-30T12:15:39.243Z,28544
2018-08-30T12:16:49.228Z,28640
2018-08-30T12:17:59.191Z,26272
2018-08-30T12:19:08.908Z,23136
2018-08-30T12:20:18.885Z,18336
2018-08-30T12:21:28.600Z,16812
2018-08-30T12:22:38.644Z,18784
2018-08-30T12:23:48.355Z,21056
2018-08-30T12:24:58.322Z,18688
2018-08-30T12:26:08.304Z,20480
2018-08-30T12:27:18.428Z,25632
2018-08-30T12:28:28.695Z,39008
2018-08-30T12:29:38.548Z,47744
2018-08-30T12:30:48.151Z,25760
2018-08-30T12:31:58.379Z,23712
2018-08-30T12:33:08.181Z,17856
2018-08-30T12:34:17.971Z,15716
2018-08-30T12:35:28.573Z,15112
2018-08-30T12:36:39.165Z,15012
2018-08-30T12:37:49.140Z,13056
2018-08-30T12:38:59.307Z,11924
2018-08-30T12:40:10.281Z,9912
2018-08-30T12:41:20.377Z,17236
2018-08-30T12:42:30.904Z,15020
2018-08-30T12:43:41.630Z,10520
2018-08-30T12:44:51.670Z,10272
2018-08-30T12:46:01.856Z,9624
2018-08-30T12:47:11.435Z,10936
2018-08-30T12:48:21.642Z,13272
2018-08-30T12:49:31.700Z,14268
2018-08-30T12:50:42.209Z,12124
2018-08-30T12:51:53.878Z,7592
2018-08-30T12:53:04.364Z,5680
2018-08-30T12:54:15.135Z,4700
2018-08-30T12:55:25.607Z,4220
2018-08-30T12:56:36.251Z,3560
2018-08-30T12:57:46.659Z,3040
2018-08-30T12:58:57.811Z,2764
2018-08-30T13:00:08.826Z,2716
2018-08-30T13:01:20.215Z,2756
2018-08-30T13:02:31.844Z,3108
2018-08-30T13:03:43.560Z,3372
2018-08-30T13:04:55.550Z,3624
2018-08-30T13:06:08.579Z,3884
2018-08-30T13:07:20.719Z,5284
2018-08-30T13:08:32.309Z,6452
2018-08-30T13:09:44.724Z,7488
2018-08-30T13:10:57.575Z,7664
2018-08-30T13:12:11.387Z,4732
2018-08-30T13:13:23.130Z,3488
2018-08-30T13:14:35.605Z,2772
2018-08-30T13:15:47.589Z,2416
2018-08-30T13:16:59.545Z,2344
2018-08-30T13:18:11.034Z,2336
2018-08-30T13:19:24.174Z,2484
2018-08-30T13:20:36.234Z,2852
2018-08-30T13:21:48.973Z,3456
2018-08-30T13:23:00.846Z,4656
2018-08-30T13:24:13.470Z,5856
2018-08-30T13:25:25.361Z,5868
2018-08-30T13:26:37.938Z,6524
2018-08-30T13:27:50.245Z,6184
2018-08-30T13:29:02.795Z,6376
2018-08-30T13:30:14.817Z,7240
2018-08-30T13:31:28.216Z,7808
2018-08-30T13:32:40.300Z,8360
2018-08-30T13:33:53.978Z,9492
2018-08-30T13:35:05.959Z,10880
2018-08-30T13:36:19.606Z,12096
2018-08-30T13:37:31.184Z,12668
2018-08-30T13:38:44.714Z,13680
2018-08-30T13:39:57.834Z,16032
2018-08-30T13:41:10.800Z,18784
2018-08-30T13:42:24.741Z,20992
2018-08-30T13:43:36.962Z,22432
2018-08-30T13:44:50.987Z,23904
2018-08-30T13:46:04.895Z,24256
2018-08-30T13:47:18.605Z,22784
2018-08-30T13:48:32.178Z,21088
2018-08-30T13:49:44.618Z,19136
2018-08-30T13:50:57.416Z,14852
2018-08-30T13:52:11.078Z,11788
2018-08-30T13:53:25.086Z,9584
2018-08-30T13:54:37.401Z,8496
2018-08-30T13:55:50.883Z,9368
2018-08-30T13:57:05.580Z,11328
2018-08-30T13:58:19.122Z,10936
2018-08-30T13:59:33.951Z,10492
2018-08-30T14:00:49.377Z,10512
2018-08-30T14:02:02.884Z,9020
2018-08-30T14:03:14.905Z,7564
2018-08-30T14:04:27.187Z,6748
2018-08-30T14:05:40.375Z,6144
2018-08-30T14:06:53.235Z,5796
2018-08-30T14:08:05.055Z,4252
2018-08-30T14:09:17.102Z,3044
2018-08-30T14:10:30.594Z,2328
2018-08-30T14:11:43.583Z,2232
2018-08-30T14:12:55.524Z,2136
2018-08-30T14:14:08.258Z,2000
2018-08-30T14:15:20.033Z,1784
2018-08-30T14:16:30.120Z,1644
2018-08-30T14:17:39.916Z,1552
2018-08-30T14:18:50.251Z,1568
2018-08-30T14:20:00.106Z,1700
2018-08-30T14:21:09.780Z,1772
2018-08-30T14:22:19.715Z,1964
2018-08-30T14:23:29.997Z,2172
2018-08-30T14:24:40.229Z,2360
2018-08-30T14:25:50.114Z,2524
2018-08-30T14:27:00.363Z,2744
2018-08-30T14:28:10.650Z,3088
2018-08-30T14:29:20.763Z,3388
2018-08-30T14:30:30.733Z,3564
2018-08-30T14:31:40.452Z,3736
2018-08-30T14:32:51.001Z,3912
2018-08-30T14:34:00.919Z,4100
2018-08-30T14:35:11.000Z,4324
2018-08-30T14:36:21.058Z,4684
2018-08-30T14:37:31.271Z,5196
2018-08-30T14:38:41.441Z,5628
2018-08-30T14:39:51.271Z,5936
2018-08-30T14:41:02.000Z,6192
2018-08-30T14:42:12.111Z,6456
2018-08-30T14:43:22.124Z,6816
2018-08-30T14:44:31.888Z,7080
2018-08-30T14:45:41.960Z,7532
2018-08-30T14:46:51.746Z,8084
2018-08-30T14:48:01.631Z,8624
2018-08-30T14:49:11.451Z,9448
2018-08-30T14:50:21.880Z,10648
2018-08-30T14:51:31.501Z,12044
2018-08-30T14:52:41.260Z,13684
2018-08-30T14:53:54.828Z,14352
2018-08-30T14:55:05.281Z,14976
2018-08-30T14:56:15.035Z,14700
2018-08-30T14:57:25.126Z,13748
2018-08-30T14:58:35.173Z,13028
2018-08-30T14:59:45.168Z,12068
2018-08-30T15:00:54.901Z,11348
2018-08-30T15:02:04.839Z,11296
2018-08-30T15:03:14.364Z,10824
2018-08-30T15:04:24.397Z,9812
2018-08-30T15:05:35.433Z,9128
2018-08-30T15:06:45.741Z,8876
2018-08-30T15:07:55.807Z,8880
2018-08-30T15:09:05.935Z,9184
2018-08-30T15:10:15.964Z,9064
2018-08-30T15:11:26.245Z,9284
2018-08-30T15:12:36.938Z,9620
2018-08-30T15:13:47.352Z,9692
2018-08-30T15:14:57.057Z,9508
2018-08-30T15:16:07.271Z,9712
2018-08-30T15:17:17.266Z,10408
2018-08-30T15:18:27.359Z,10484
2018-08-30T15:19:36.825Z,10940
2018-08-30T15:20:46.274Z,10792
2018-08-30T15:21:55.812Z,10048
2018-08-30T15:23:05.561Z,9044
2018-08-30T15:24:15.349Z,7420
2018-08-30T15:25:25.402Z,5844
2018-08-30T15:26:35.201Z,4888
2018-08-30T15:27:45.291Z,5092
2018-08-30T15:28:55.271Z,5852
2018-08-30T15:30:05.375Z,6408
2018-08-30T15:31:15.539Z,6716
2018-08-30T15:32:25.534Z,6876
2018-08-30T15:33:35.600Z,7464
2018-08-30T15:34:45.759Z,8432
2018-08-30T15:35:55.809Z,9492
2018-08-30T15:37:05.839Z,10716
2018-08-30T15:38:15.911Z,12648
2018-08-30T15:39:25.641Z,13676
2018-08-30T15:40:35.782Z,13576
2018-08-30T15:41:46.710Z,13736
2018-08-30T15:42:57.033Z,13668
2018-08-30T15:44:06.936Z,12324
2018-08-30T15:45:17.218Z,10984
2018-08-30T15:46:27.288Z,10148
2018-08-30T15:47:37.359Z,9368